| time (UTC) | temp F | wind direction | speed MPH | gust MPH | rain 1hr in | rain 24hr in | rain mn in | humidity % | barometer mb |
| 20260906220049 | 88 | 0 | 1.0 | 4.0 | 0.00 | 0.00 | 0.00 | 29 | 1015.0 |
| 20260906215815 | 88 | 330 | 1.0 | 3.0 | 0.00 | 0.00 | 0.00 | 30 | 1015.1 |
| 20260906214801 | 86 | 284 | 1.0 | 5.0 | 0.00 | 0.00 | 0.00 | 33 | 1015.1 |
| 20260906214604 | 85 | 184 | 0.0 | 7.0 | 0.00 | 0.00 | 0.00 | 31 | 1015.1 |
| 20260906213741 | 88 | 101 | 1.0 | 5.0 | 0.00 | 0.00 | 0.00 | 31 | 1015.1 |
| 20260906213055 | 88 | 57 | 1.0 | 7.0 | 0.00 | 0.00 | 0.00 | 31 | 1015.1 |
| 20260906212749 | 88 | 42 | 1.0 | 5.0 | 0.00 | 0.00 | 0.00 | 31 | 1015.2 |
| 20260906211739 | 86 | 139 | 1.0 | 4.0 | 0.00 | 0.00 | 0.00 | 31 | 1015.5 |
| 20260906211549 | 87 | 132 | 2.0 | 6.0 | 0.00 | 0.00 | 0.00 | 31 | 1015.5 |
| 20260906210749 | 86 | 40 | 0.0 | 8.0 | 0.00 | 0.00 | 0.00 | 32 | 1015.5 |
| 20260906210049 | 85 | 140 | 1.0 | 9.0 | 0.00 | 0.00 | 0.00 | 30 | 1015.5 |
| 20260906205749 | 86 | 249 | 1.0 | 8.0 | 0.00 | 0.00 | 0.00 | 31 | 1015.6 |
| 20260906204730 | 83 | 29 | 2.0 | 8.0 | 0.00 | 0.00 | 0.00 | 33 | 1016.0 |
| 20260906204554 | 83 | 182 | 1.0 | 10.0 | 0.00 | 0.00 | 0.00 | 32 | 1016.0 |
| 20260906203728 | 84 | 97 | 2.0 | 8.0 | 0.00 | 0.00 | 0.00 | 33 | 1016.1 |
| 20260906203053 | 86 | 85 | 3.0 | 8.0 | 0.00 | 0.00 | 0.00 | 31 | 1016.2 |
| 20260906202739 | 86 | 51 | 1.0 | 10.0 | 0.00 | 0.00 | 0.00 | 32 | 1016.2 |
| 20260906201549 | 85 | 57 | 1.0 | 12.0 | 0.00 | 0.00 | 0.00 | 33 | 1015.9 |
| 20260906200555 | 85 | 68 | 1.0 | 6.0 | 0.00 | 0.00 | 0.00 | 33 | 1016.2 |
| 20260906200057 | 83 | 74 | 1.0 | 7.0 | 0.00 | 0.00 | 0.00 | 33 | 1016.2 |
| 20260906194554 | 84 | 67 | 2.0 | 8.0 | 0.00 | 0.00 | 0.00 | 34 | 1016.4 |
| 20260906194439 | 84 | 74 | 2.0 | 8.0 | 0.00 | 0.00 | 0.00 | 34 | 1016.5 |
| 20260906193428 | 83 | 125 | 2.0 | 8.0 | 0.00 | 0.00 | 0.00 | 35 | 1016.6 |
| 20260906193051 | 82 | 35 | 2.0 | 8.0 | 0.00 | 0.00 | 0.00 | 35 | 1016.7 |
| 20260906192452 | 85 | 128 | 1.0 | 6.0 | 0.00 | 0.00 | 0.00 | 31 | 1016.7 |
| 20260906191612 | 86 | 0 | 0.0 | 4.0 | 0.00 | 0.00 | 0.00 | 31 | 1016.8 |
| 20260906191421 | 86 | 304 | 0.0 | 0.0 | 0.00 | 0.00 | 0.00 | 32 | 1016.8 |
| 20260906190447 | 85 | 92 | 1.0 | 4.0 | 0.00 | 0.00 | 0.00 | 33 | 1017.0 |
| 20260906185503 | 82 | 80 | 2.0 | 7.0 | 0.00 | 0.00 | 0.00 | 36 | 1017.0 |
| 20260906184601 | 80 | 63 | 2.0 | 8.0 | 0.00 | 0.00 | 0.00 | 38 | 1017.1 |
| 20260906184501 | 81 | 113 | 1.0 | 7.0 | 0.00 | 0.00 | 0.00 | 38 | 1017.0 |
| 20260906183500 | 82 | 70 | 1.0 | 7.0 | 0.00 | 0.00 | 0.00 | 37 | 1017.1 |
| 20260906183052 | 81 | 323 | 1.0 | 8.0 | 0.00 | 0.00 | 0.00 | 38 | 1017.3 |
| 20260906182525 | 80 | 304 | 1.0 | 7.0 | 0.00 | 0.00 | 0.00 | 38 | 1017.5 |
| 20260906181600 | 79 | 0 | 1.0 | 7.0 | 0.00 | 0.00 | 0.00 | 38 | 1017.5 |
| 20260906180435 | 80 | 121 | 1.0 | 7.0 | 0.00 | 0.00 | 0.00 | 38 | 1017.9 |
| 20260906180112 | 78 | 63 | 1.0 | 8.0 | 0.00 | 0.00 | 0.00 | 40 | 1018.0 |
| 20260906175435 | 79 | 53 | 1.0 | 7.0 | 0.00 | 0.00 | 0.00 | 39 | 1018.0 |
| 20260906174556 | 79 | 0 | 1.0 | 9.0 | 0.00 | 0.00 | 0.00 | 39 | 1018.1 |
| 20260906174429 | 79 | 54 | 2.0 | 7.0 | 0.00 | 0.00 | 0.00 | 39 | 1018.1 |
| 20260906173448 | 77 | 47 | 1.0 | 6.0 | 0.00 | 0.00 | 0.00 | 41 | 1018.2 |
| 20260906173054 | 76 | 70 | 1.0 | 8.0 | 0.00 | 0.00 | 0.00 | 42 | 1018.3 |
| 20260906172415 | 76 | 58 | 2.0 | 7.0 | 0.00 | 0.00 | 0.00 | 43 | 1018.3 |
| 20260906171549 | 75 | 188 | 3.0 | 8.0 | 0.00 | 0.00 | 0.00 | 43 | 1018.3 |
| 20260906171347 | 75 | 115 | 3.0 | 7.0 | 0.00 | 0.00 | 0.00 | 43 | 1018.3 |
| 20260906170402 | 77 | 148 | 1.0 | 4.0 | 0.00 | 0.00 | 0.00 | 40 | 1018.4 |
| 20260906170059 | 77 | 135 | 1.0 | 7.0 | 0.00 | 0.00 | 0.00 | 39 | 1018.3 |
| 20260906165421 | 78 | 104 | 2.0 | 8.0 | 0.00 | 0.00 | 0.00 | 39 | 1018.4 |
| 20260906164556 | 77 | 123 | 1.0 | 9.0 | 0.00 | 0.00 | 0.00 | 39 | 1018.5 |
| 20260906164419 | 77 | 103 | 2.0 | 8.0 | 0.00 | 0.00 | 0.00 | 39 | 1018.5 |
| 20260906163111 | 76 | 0 | 0.0 | 4.0 | 0.00 | 0.00 | 0.00 | 41 | 1018.6 |
| 20260906162249 | 75 | 83 | 1.0 | 7.0 | 0.00 | 0.00 | 0.00 | 42 | 1018.6 |
| 20260906161549 | 74 | 82 | 2.0 | 8.0 | 0.00 | 0.00 | 0.00 | 42 | 1018.6 |
| 20260906160119 | 74 | 55 | 1.0 | 6.0 | 0.00 | 0.00 | 0.00 | 43 | 1018.7 |
| 20260906160049 | 73 | 126 | 2.0 | 8.0 | 0.00 | 0.00 | 0.00 | 43 | 1018.7 |
| 20260906155058 | 75 | 115 | 1.0 | 3.0 | 0.00 | 0.00 | 0.00 | 41 | 1018.6 |
| 20260906154555 | 73 | 136 | 1.0 | 6.0 | 0.00 | 0.00 | 0.00 | 42 | 1018.6 |
| 20260906154037 | 72 | 87 | 1.0 | 4.0 | 0.00 | 0.00 | 0.00 | 45 | 1018.5 |
| 20260906153052 | 71 | 163 | 1.0 | 6.0 | 0.00 | 0.00 | 0.00 | 44 | 1018.6 |
| 20260906152110 | 72 | 104 | 1.0 | 3.0 | 0.00 | 0.00 | 0.00 | 44 | 1018.5 |
| 20260906151549 | 71 | 125 | 2.0 | 4.0 | 0.00 | 0.00 | 0.00 | 44 | 1018.5 |
| 20260906151112 | 71 | 86 | 1.0 | 3.0 | 0.00 | 0.00 | 0.00 | 46 | 1018.5 |
| 20260906150128 | 72 | 97 | 0.0 | 2.0 | 0.00 | 0.00 | 0.00 | 44 | 1018.6 |
| 20260906150059 | 71 | 97 | 1.0 | 3.0 | 0.00 | 0.00 | 0.00 | 44 | 1018.6 |
| 20260906145110 | 71 | 77 | 0.0 | 2.0 | 0.00 | 0.00 | 0.00 | 42 | 1018.6 |
| 20260906144552 | 71 | 77 | 0.0 | 4.0 | 0.00 | 0.00 | 0.00 | 42 | 1018.6 |
| 20260906144050 | 71 | 46 | 1.0 | 2.0 | 0.00 | 0.00 | 0.00 | 42 | 1018.6 |
| 20260906143107 | 70 | 57 | 0.0 | 2.0 | 0.00 | 0.00 | 0.00 | 41 | 1018.6 |
| 20260906143101 | 69 | 57 | 0.0 | 3.0 | 0.00 | 0.00 | 0.00 | 41 | 1018.6 |
| 20260906142129 | 67 | 259 | 0.0 | 0.0 | 0.00 | 0.00 | 0.00 | 44 | 1018.6 |
| 20260906141600 | 65 | 0 | 0.0 | 0.0 | 0.00 | 0.00 | 0.00 | 46 | 1018.6 |
| 20260906141055 | 65 | 259 | 0.0 | 0.0 | 0.00 | 0.00 | 0.00 | 46 | 1018.6 |
| 20260906140114 | 62 | 259 | 0.0 | 0.0 | 0.00 | 0.00 | 0.00 | 49 | 1018.6 |
| 20260906140056 | 62 | 0 | 0.0 | 0.0 | 0.00 | 0.00 | 0.00 | 50 | 1018.6 |
| 20260906134552 | 58 | 0 | 0.0 | 0.0 | 0.00 | 0.00 | 0.00 | 55 | 1018.5 |
| 20260906133924 | 57 | 259 | 0.0 | 0.0 | 0.00 | 0.00 | 0.00 | 56 | 1018.5 |
| 20260906133056 | 54 | 0 | 0.0 | 0.0 | 0.00 | 0.00 | 0.00 | 58 | 1018.5 |
| 20260906132941 | 54 | 259 | 0.0 | 0.0 | 0.00 | 0.00 | 0.00 | 59 | 1018.6 |
| 20260906131923 | 54 | 259 | 0.0 | 0.0 | 0.00 | 0.00 | 0.00 | 60 | 1018.5 |
| 20260906131608 | 53 | 0 | 0.0 | 0.0 | 0.00 | 0.00 | 0.00 | 59 | 1018.6 |
| 20260906130928 | 53 | 259 | 0.0 | 0.0 | 0.00 | 0.00 | 0.00 | 59 | 1018.7 |
| 20260906130105 | 53 | 0 | 0.0 | 0.0 | 0.00 | 0.00 | 0.00 | 60 | 1018.7 |
| 20260906125929 | 54 | 259 | 0.0 | 0.0 | 0.00 | 0.00 | 0.00 | 59 | 1018.7 |
| 20260906124942 | 53 | 259 | 0.0 | 0.0 | 0.00 | 0.00 | 0.00 | 59 | 1018.7 |
| 20260906124553 | 53 | 0 | 0.0 | 0.0 | 0.00 | 0.00 | 0.00 | 59 | 1018.7 |
| 20260906123053 | 53 | 0 | 0.0 | 0.0 | 0.00 | 0.00 | 0.00 | 59 | 1018.6 |
| 20260906121737 | 54 | 259 | 0.0 | 0.0 | 0.00 | 0.00 | 0.00 | 57 | 1018.4 |
| 20260906121550 | 54 | 0 | 0.0 | 0.0 | 0.00 | 0.00 | 0.00 | 57 | 1018.4 |
| 20260906120719 | 55 | 259 | 0.0 | 0.0 | 0.00 | 0.00 | 0.00 | 55 | 1018.4 |
| 20260906120101 | 54 | 0 | 0.0 | 0.0 | 0.00 | 0.00 | 0.00 | 55 | 1018.3 |
| 20260906115723 | 55 | 259 | 0.0 | 0.0 | 0.00 | 0.00 | 0.00 | 56 | 1018.2 |
| 20260906114735 | 55 | 259 | 0.0 | 0.0 | 0.00 | 0.00 | 0.00 | 55 | 1018.1 |
| 20260906114553 | 54 | 0 | 0.0 | 0.0 | 0.00 | 0.00 | 0.00 | 55 | 1018.0 |
| 20260906113744 | 55 | 259 | 0.0 | 0.0 | 0.00 | 0.00 | 0.00 | 56 | 1018.2 |
| 20260906113051 | 54 | 0 | 0.0 | 0.0 | 0.00 | 0.00 | 0.00 | 57 | 1018.2 |
| 20260906112748 | 55 | 259 | 0.0 | 0.0 | 0.00 | 0.00 | 0.00 | 56 | 1018.2 |
| 20260906111548 | 54 | 0 | 0.0 | 0.0 | 0.00 | 0.00 | 0.00 | 58 | 1018.1 |
| 20260906110632 | 55 | 259 | 0.0 | 0.0 | 0.00 | 0.00 | 0.00 | 57 | 1018.0 |
| 20260906110056 | 54 | 0 | 0.0 | 0.0 | 0.00 | 0.00 | 0.00 | 58 | 1018.0 |
| 20260906105636 | 55 | 259 | 0.0 | 0.0 | 0.00 | 0.00 | 0.00 | 58 | 1018.0 |
| 20260906104657 | 56 | 259 | 0.0 | 0.0 | 0.00 | 0.00 | 0.00 | 58 | 1018.0 |
| 20260906104551 | 55 | 0 | 0.0 | 0.0 | 0.00 | 0.00 | 0.00 | 57 | 1018.0 |
| 20260906103049 | 56 | 0 | 0.0 | 0.0 | 0.00 | 0.00 | 0.00 | 57 | 1018.1 |
| 20260906102515 | 56 | 259 | 0.0 | 0.0 | 0.00 | 0.00 | 0.00 | 58 | 1018.1 |
| 20260906101550 | 57 | 0 | 0.0 | 3.0 | 0.00 | 0.00 | 0.00 | 57 | 1018.2 |
| 20260906101452 | 57 | 259 | 0.0 | 0.0 | 0.00 | 0.00 | 0.00 | 57 | 1018.2 |
| 20260906100514 | 58 | 259 | 0.0 | 0.0 | 0.00 | 0.00 | 0.00 | 55 | 1018.2 |
| 20260906100055 | 58 | 0 | 0.0 | 0.0 | 0.00 | 0.00 | 0.00 | 54 | 1018.1 |
| 20260906095509 | 59 | 259 | 0.0 | 0.0 | 0.00 | 0.00 | 0.00 | 53 | 1018.1 |
| 20260906094549 | 60 | 0 | 1.0 | 10.0 | 0.00 | 0.00 | 0.00 | 50 | 1018.1 |
| 20260906094526 | 60 | 258 | 1.0 | 8.0 | 0.00 | 0.00 | 0.00 | 50 | 1018.1 |
| 20260906093505 | 60 | 275 | 1.0 | 8.0 | 0.00 | 0.00 | 0.00 | 52 | 1018.0 |
| 20260906093057 | 58 | 264 | 2.0 | 12.0 | 0.00 | 0.00 | 0.00 | 52 | 1018.2 |
| 20260906092516 | 58 | 294 | 0.0 | 5.0 | 0.00 | 0.00 | 0.00 | 56 | 1018.3 |
| 20260906091557 | 58 | 0 | 0.0 | 3.0 | 0.00 | 0.00 | 0.00 | 55 | 1018.4 |
| 20260906091456 | 59 | 273 | 0.0 | 2.0 | 0.00 | 0.00 | 0.00 | 55 | 1018.3 |
| 20260906090521 | 59 | 286 | 0.0 | 0.0 | 0.00 | 0.00 | 0.00 | 55 | 1018.5 |
| 20260906090058 | 58 | 0 | 0.0 | 0.0 | 0.00 | 0.00 | 0.00 | 55 | 1018.6 |
| 20260906084555 | 58 | 0 | 0.0 | 0.0 | 0.00 | 0.00 | 0.00 | 57 | 1018.6 |
| 20260906084445 | 58 | 286 | 0.0 | 0.0 | 0.00 | 0.00 | 0.00 | 58 | 1018.6 |
| 20260906083427 | 59 | 286 | 0.0 | 0.0 | 0.00 | 0.00 | 0.00 | 56 | 1018.6 |
| 20260906083059 | 59 | 0 | 0.0 | 4.0 | 0.00 | 0.00 | 0.00 | 55 | 1018.7 |
| 20260906082413 | 61 | 286 | 0.0 | 2.0 | 0.00 | 0.00 | 0.00 | 53 | 1018.8 |
| 20260906081600 | 62 | 0 | 0.0 | 2.0 | 0.00 | 0.00 | 0.00 | 49 | 1018.9 |
| 20260906081406 | 62 | 269 | 0.0 | 0.0 | 0.00 | 0.00 | 0.00 | 49 | 1018.9 |
| 20260906080414 | 62 | 271 | 0.0 | 2.0 | 0.00 | 0.00 | 0.00 | 51 | 1019.1 |
| 20260906080059 | 61 | 271 | 0.0 | 4.0 | 0.00 | 0.00 | 0.00 | 51 | 1019.1 |
| 20260906075427 | 61 | 271 | 0.0 | 2.0 | 0.00 | 0.00 | 0.00 | 52 | 1019.1 |
| 20260906074558 | 59 | 0 | 0.0 | 3.0 | 0.00 | 0.00 | 0.00 | 55 | 1019.3 |
| 20260906074415 | 59 | 271 | 0.0 | 2.0 | 0.00 | 0.00 | 0.00 | 56 | 1019.3 |
| 20260906073344 | 58 | 278 | 0.0 | 0.0 | 0.00 | 0.00 | 0.00 | 59 | 1019.3 |
| 20260906073103 | 57 | 278 | 0.0 | 3.0 | 0.00 | 0.00 | 0.00 | 59 | 1019.3 |
| 20260906072349 | 58 | 279 | 0.0 | 1.0 | 0.00 | 0.00 | 0.00 | 62 | 1019.4 |
| 20260906071600 | 57 | 0 | 0.0 | 0.0 | 0.00 | 0.00 | 0.00 | 60 | 1019.4 |
| 20260906071349 | 58 | 303 | 0.0 | 0.0 | 0.00 | 0.00 | 0.00 | 61 | 1019.5 |
| 20260906070356 | 58 | 303 | 0.0 | 0.0 | 0.00 | 0.00 | 0.00 | 60 | 1019.5 |
| 20260906070057 | 57 | 0 | 0.0 | 0.0 | 0.00 | 0.00 | 0.00 | 61 | 1019.6 |
| 20260906065405 | 57 | 303 | 0.0 | 0.0 | 0.00 | 0.00 | 0.00 | 62 | 1019.7 |
| 20260906064552 | 57 | 0 | 0.0 | 0.0 | 0.00 | 0.00 | 0.00 | 61 | 1019.7 |
| 20260906064344 | 57 | 303 | 0.0 | 0.0 | 0.00 | 0.00 | 0.00 | 60 | 1019.7 |
| 20260906063100 | 57 | 0 | 0.0 | 0.0 | 0.00 | 0.00 | 0.00 | 59 | 1019.8 |
| 20260906062240 | 58 | 303 | 0.0 | 0.0 | 0.00 | 0.00 | 0.00 | 60 | 1020.0 |
| 20260906061559 | 57 | 0 | 0.0 | 0.0 | 0.00 | 0.00 | 0.00 | 60 | 1020.0 |
| 20260906061213 | 58 | 303 | 0.0 | 0.0 | 0.00 | 0.00 | 0.00 | 59 | 1020.0 |
| 20260906060217 | 58 | 303 | 0.0 | 0.0 | 0.00 | 0.00 | 0.00 | 58 | 1020.0 |
| 20260906060103 | 58 | 0 | 0.0 | 0.0 | 0.00 | 0.00 | 0.00 | 58 | 1020.0 |
| 20260906055219 | 59 | 303 | 0.0 | 0.0 | 0.00 | 0.00 | 0.00 | 57 | 1020.0 |
| 20260906054552 | 58 | 0 | 0.0 | 0.0 | 0.00 | 0.00 | 0.00 | 57 | 1019.8 |
| 20260906053050 | 59 | 0 | 0.0 | 0.0 | 0.00 | 0.00 | 0.00 | 58 | 1020.0 |
| 20260906052030 | 59 | 303 | 0.0 | 0.0 | 0.00 | 0.00 | 0.00 | 57 | 1020.2 |
| 20260906051600 | 59 | 0 | 0.0 | 0.0 | 0.00 | 0.00 | 0.00 | 57 | 1020.2 |
| 20260906051025 | 60 | 303 | 0.0 | 0.0 | 0.00 | 0.00 | 0.00 | 56 | 1020.3 |
| 20260906050059 | 60 | 0 | 0.0 | 0.0 | 0.00 | 0.00 | 0.00 | 57 | 1020.2 |
| 20260906050015 | 60 | 303 | 0.0 | 0.0 | 0.00 | 0.00 | 0.00 | 57 | 1020.3 |
| 20260906045019 | 60 | 303 | 0.0 | 0.0 | 0.00 | 0.00 | 0.00 | 55 | 1020.3 |
| 20260906044552 | 60 | 0 | 0.0 | 0.0 | 0.00 | 0.00 | 0.00 | 56 | 1020.3 |
| 20260906044034 | 60 | 303 | 0.0 | 0.0 | 0.00 | 0.00 | 0.00 | 57 | 1020.3 |
| 20260906043049 | 59 | 0 | 0.0 | 0.0 | 0.00 | 0.00 | 0.00 | 57 | 1020.6 |
| 20260906043010 | 60 | 303 | 0.0 | 0.0 | 0.00 | 0.00 | 0.00 | 57 | 1020.7 |
| 20260906042015 | 60 | 303 | 0.0 | 0.0 | 0.00 | 0.00 | 0.00 | 58 | 1020.4 |
| 20260906041558 | 59 | 0 | 0.0 | 0.0 | 0.00 | 0.00 | 0.00 | 56 | 1020.3 |
| 20260906040056 | 60 | 0 | 0.0 | 3.0 | 0.00 | 0.00 | 0.00 | 54 | 1020.3 |
| 20260906035839 | 60 | 303 | 0.0 | 0.0 | 0.00 | 0.00 | 0.00 | 54 | 1020.1 |
| 20260906034839 | 61 | 297 | 0.0 | 1.0 | 0.00 | 0.00 | 0.00 | 54 | 1020.1 |
| 20260906034552 | 60 | 297 | 0.0 | 2.0 | 0.00 | 0.00 | 0.00 | 54 | 1020.1 |
| 20260906033050 | 60 | 297 | 1.0 | 3.0 | 0.00 | 0.00 | 0.00 | 54 | 1020.1 |
| 20260906032711 | 61 | 290 | 0.0 | 2.0 | 0.00 | 0.00 | 0.00 | 54 | 1020.1 |
| 20260906031640 | 61 | 293 | 0.0 | 1.0 | 0.00 | 0.00 | 0.00 | 54 | 1020.0 |
| 20260906031558 | 60 | 293 | 0.0 | 2.0 | 0.00 | 0.00 | 0.00 | 54 | 1020.0 |
| 20260906030054 | 61 | 293 | 1.0 | 3.0 | 0.00 | 0.00 | 0.00 | 53 | 1020.0 |
| 20260906025529 | 61 | 292 | 0.0 | 1.0 | 0.00 | 0.00 | 0.00 | 53 | 1020.1 |
| 20260906024600 | 61 | 0 | 1.0 | 3.0 | 0.00 | 0.00 | 0.00 | 52 | 1020.0 |
| 20260906024508 | 62 | 292 | 0.0 | 2.0 | 0.00 | 0.00 | 0.00 | 53 | 1020.0 |
| 20260906023502 | 62 | 293 | 0.0 | 2.0 | 0.00 | 0.00 | 0.00 | 52 | 1019.8 |
| 20260906023058 | 61 | 0 | 0.0 | 3.0 | 0.00 | 0.00 | 0.00 | 52 | 1019.7 |
| 20260906021557 | 61 | 0 | 0.0 | 2.0 | 0.00 | 0.00 | 0.00 | 51 | 1019.4 |
| 20260906021333 | 62 | 297 | 0.0 | 1.0 | 0.00 | 0.00 | 0.00 | 51 | 1019.5 |
| 20260906020353 | 62 | 297 | 0.0 | 1.0 | 0.00 | 0.00 | 0.00 | 52 | 1019.4 |
| 20260906020101 | 62 | 0 | 0.0 | 2.0 | 0.00 | 0.00 | 0.00 | 51 | 1019.4 |
| 20260906015334 | 62 | 297 | 0.0 | 0.0 | 0.00 | 0.00 | 0.00 | 51 | 1019.4 |
| 20260906014605 | 62 | 0 | 0.0 | 2.0 | 0.00 | 0.00 | 0.00 | 51 | 1019.4 |
| 20260906014335 | 63 | 297 | 0.0 | 0.0 | 0.00 | 0.00 | 0.00 | 51 | 1019.4 |
| 20260906013302 | 63 | 298 | 0.0 | 1.0 | 0.00 | 0.00 | 0.00 | 51 | 1019.4 |
| 20260906013052 | 63 | 298 | 0.0 | 2.0 | 0.00 | 0.00 | 0.00 | 51 | 1019.4 |
| 20260906012233 | 64 | 298 | 0.0 | 0.0 | 0.00 | 0.00 | 0.00 | 50 | 1019.4 |
| 20260906011603 | 64 | 0 | 0.0 | 2.0 | 0.00 | 0.00 | 0.00 | 49 | 1019.4 |
| 20260906011254 | 65 | 298 | 0.0 | 1.0 | 0.00 | 0.00 | 0.00 | 49 | 1019.4 |
| 20260906010301 | 66 | 298 | 0.0 | 0.0 | 0.00 | 0.00 | 0.00 | 49 | 1019.3 |
| 20260906010050 | 66 | 0 | 0.0 | 1.0 | 0.00 | 0.00 | 0.00 | 48 | 1019.3 |
| 20260906005235 | 67 | 298 | 0.0 | 0.0 | 0.00 | 0.00 | 0.00 | 46 | 1019.3 |
| 20260906004557 | 68 | 0 | 0.0 | 1.0 | 0.00 | 0.00 | 0.00 | 44 | 1019.2 |
| 20260906004224 | 69 | 298 | 0.0 | 0.0 | 0.00 | 0.00 | 0.00 | 43 | 1019.2 |
| 20260906003150 | 71 | 299 | 0.0 | 0.0 | 0.00 | 0.00 | 0.00 | 40 | 1019.2 |
| 20260906003053 | 71 | 0 | 0.0 | 3.0 | 0.00 | 0.00 | 0.00 | 40 | 1019.2 |
| 20260906002130 | 72 | 300 | 1.0 | 3.0 | 0.00 | 0.00 | 0.00 | 37 | 1019.2 |
| 20260906001603 | 72 | 301 | 1.0 | 4.0 | 0.00 | 0.00 | 0.00 | 36 | 1019.2 |
| 20260906001148 | 73 | 301 | 1.0 | 3.0 | 0.00 | 0.00 | 0.00 | 37 | 1019.3 |
| 20260906000100 | 73 | 304 | 1.0 | 3.0 | 0.00 | 0.00 | 0.00 | 35 | 1019.2 |
| 20260905234955 | 75 | 296 | 1.0 | 6.0 | 0.00 | 0.00 | 0.00 | 34 | 1019.3 |
| 20260905234556 | 75 | 0 | 2.0 | 7.0 | 0.00 | 0.00 | 0.00 | 33 | 1019.2 |
| 20260905234010 | 76 | 298 | 2.0 | 7.0 | 0.00 | 0.00 | 0.00 | 33 | 1019.1 |
| 20260905233108 | 75 | 295 | 2.0 | 9.0 | 0.00 | 0.00 | 0.00 | 32 | 1019.2 |
| 20260905231600 | 82 | 320 | 1.0 | 5.0 | 0.00 | 0.00 | 0.00 | 27 | 1019.0 |
| 20260905230745 | 84 | 346 | 0.0 | 1.0 | 0.00 | 0.00 | 0.00 | 26 | 1019.0 |
| 20260905225736 | 83 | 321 | 0.0 | 2.0 | 0.00 | 0.00 | 0.00 | 26 | 1019.1 |
| 20260905224712 | 81 | 66 | 0.0 | 4.0 | 0.00 | 0.00 | 0.00 | 28 | 1019.1 |
| 20260905224608 | 80 | 0 | 1.0 | 5.0 | 0.00 | 0.00 | 0.00 | 27 | 1019.1 |
| 20260905223705 | 82 | 159 | 1.0 | 5.0 | 0.00 | 0.00 | 0.00 | 27 | 1019.2 |
| 20260905223054 | 82 | 72 | 2.0 | 7.0 | 0.00 | 0.00 | 0.00 | 27 | 1019.2 |
| 20260905222653 | 82 | 59 | 0.0 | 5.0 | 0.00 | 0.00 | 0.00 | 26 | 1019.1 |
| 20260905221704 | 83 | 43 | 1.0 | 0.0 | 0.00 | 0.00 | 0.00 | 26 | 1019.3 |
| 20260905221557 | 83 | 0 | 2.0 | 5.0 | 0.00 | 0.00 | 0.00 | 26 | 1019.3 |
| 20260905220652 | 83 | 55 | 1.0 | 6.0 | 0.00 | 0.00 | 0.00 | 26 | 1019.3 |